sensor_id;sensor_type;location;lat;lon;timestamp;temperature;humidity
7498;DHT22;3790;48.806;9.140;2023-08-08T00:01:18;14.70;99.90
7498;DHT22;3790;48.806;9.140;2023-08-08T00:06:18;14.70;99.90
7498;DHT22;3790;48.806;9.140;2023-08-08T00:11:20;14.80;99.90
7498;DHT22;3790;48.806;9.140;2023-08-08T00:16:20;14.90;99.90
7498;DHT22;3790;48.806;9.140;2023-08-08T00:21:21;14.90;99.90
7498;DHT22;3790;48.806;9.140;2023-08-08T00:26:21;14.90;99.90
7498;DHT22;3790;48.806;9.140;2023-08-08T00:31:22;14.90;99.90
7498;DHT22;3790;48.806;9.140;2023-08-08T00:36:22;14.90;99.90
7498;DHT22;3790;48.806;9.140;2023-08-08T00:41:23;15.00;99.90
7498;DHT22;3790;48.806;9.140;2023-08-08T00:46:23;15.00;99.90
7498;DHT22;3790;48.806;9.140;2023-08-08T00:51:24;15.10;99.90
7498;DHT22;3790;48.806;9.140;2023-08-08T00:56:25;15.20;99.90
7498;DHT22;3790;48.806;9.140;2023-08-08T01:01:29;15.10;99.90
7498;DHT22;3790;48.806;9.140;2023-08-08T01:06:37;15.10;99.90
7498;DHT22;3790;48.806;9.140;2023-08-08T01:11:39;15.10;99.90
7498;DHT22;3790;48.806;9.140;2023-08-08T01:16:40;15.00;99.90
7498;DHT22;3790;48.806;9.140;2023-08-08T01:21:43;15.00;99.90
7498;DHT22;3790;48.806;9.140;2023-08-08T01:26:45;15.00;99.90
7498;DHT22;3790;48.806;9.140;2023-08-08T01:31:46;14.90;99.90
7498;DHT22;3790;48.806;9.140;2023-08-08T01:36:56;14.90;99.90
7498;DHT22;3790;48.806;9.140;2023-08-08T01:41:59;14.90;99.90
7498;DHT22;3790;48.806;9.140;2023-08-08T01:47:00;14.90;99.90
7498;DHT22;3790;48.806;9.140;2023-08-08T01:52:03;14.80;99.90
7498;DHT22;3790;48.806;9.140;2023-08-08T01:57:05;14.80;99.90
7498;DHT22;3790;48.806;9.140;2023-08-08T02:02:06;14.70;99.90
7498;DHT22;3790;48.806;9.140;2023-08-08T02:07:06;14.80;99.90
7498;DHT22;3790;48.806;9.140;2023-08-08T02:12:07;14.80;99.90
7498;DHT22;3790;48.806;9.140;2023-08-08T02:17:08;14.90;99.90
7498;DHT22;3790;48.806;9.140;2023-08-08T02:22:09;14.80;99.90
7498;DHT22;3790;48.806;9.140;2023-08-08T02:27:11;14.90;99.90
7498;DHT22;3790;48.806;9.140;2023-08-08T02:32:12;14.70;99.90
7498;DHT22;3790;48.806;9.140;2023-08-08T02:37:13;14.60;99.90
7498;DHT22;3790;48.806;9.140;2023-08-08T02:42:14;14.40;99.90
7498;DHT22;3790;48.806;9.140;2023-08-08T02:47:14;14.30;99.90
7498;DHT22;3790;48.806;9.140;2023-08-08T02:52:15;14.20;99.90
7498;DHT22;3790;48.806;9.140;2023-08-08T02:57:16;14.00;99.90
7498;DHT22;3790;48.806;9.140;2023-08-08T03:02:16;14.00;99.90
7498;DHT22;3790;48.806;9.140;2023-08-08T03:07:17;14.00;99.90
7498;DHT22;3790;48.806;9.140;2023-08-08T03:12:17;14.10;99.90
7498;DHT22;3790;48.806;9.140;2023-08-08T03:17:18;14.20;99.90
7498;DHT22;3790;48.806;9.140;2023-08-08T03:22:18;14.20;99.90
7498;DHT22;3790;48.806;9.140;2023-08-08T03:27:19;14.10;99.90
7498;DHT22;3790;48.806;9.140;2023-08-08T03:32:19;14.10;99.90
7498;DHT22;3790;48.806;9.140;2023-08-08T03:37:20;14.10;99.90
7498;DHT22;3790;48.806;9.140;2023-08-08T03:42:20;14.10;99.90
7498;DHT22;3790;48.806;9.140;2023-08-08T03:47:21;14.30;99.90
7498;DHT22;3790;48.806;9.140;2023-08-08T03:52:23;14.30;99.90
7498;DHT22;3790;48.806;9.140;2023-08-08T03:57:23;14.40;99.90
7498;DHT22;3790;48.806;9.140;2023-08-08T04:02:24;14.50;99.90
7498;DHT22;3790;48.806;9.140;2023-08-08T04:07:25;14.50;99.90
7498;DHT22;3790;48.806;9.140;2023-08-08T04:12:26;14.60;99.90
7498;DHT22;3790;48.806;9.140;2023-08-08T04:17:27;14.60;99.90
7498;DHT22;3790;48.806;9.140;2023-08-08T04:22:27;14.70;99.90
7498;DHT22;3790;48.806;9.140;2023-08-08T04:27:28;14.60;99.90
7498;DHT22;3790;48.806;9.140;2023-08-08T04:32:29;14.60;99.90
7498;DHT22;3790;48.806;9.140;2023-08-08T04:37:30;14.50;99.90
7498;DHT22;3790;48.806;9.140;2023-08-08T04:42:30;14.60;99.90
7498;DHT22;3790;48.806;9.140;2023-08-08T04:47:31;14.70;99.90
7498;DHT22;3790;48.806;9.140;2023-08-08T04:52:31;14.80;99.90
7498;DHT22;3790;48.806;9.140;2023-08-08T04:57:32;14.90;99.90
7498;DHT22;3790;48.806;9.140;2023-08-08T05:02:32;15.00;99.90
7498;DHT22;3790;48.806;9.140;2023-08-08T05:07:33;15.00;99.90
7498;DHT22;3790;48.806;9.140;2023-08-08T05:12:36;14.90;99.90
7498;DHT22;3790;48.806;9.140;2023-08-08T05:17:37;15.10;99.90
7498;DHT22;3790;48.806;9.140;2023-08-08T05:22:37;15.70;99.90
7498;DHT22;3790;48.806;9.140;2023-08-08T05:27:38;18.70;99.90
7498;DHT22;3790;48.806;9.140;2023-08-08T05:32:38;20.40;99.90
7498;DHT22;3790;48.806;9.140;2023-08-08T05:37:39;18.20;99.90
7498;DHT22;3790;48.806;9.140;2023-08-08T05:42:40;16.50;99.90
7498;DHT22;3790;48.806;9.140;2023-08-08T05:47:40;16.00;99.90
7498;DHT22;3790;48.806;9.140;2023-08-08T05:52:41;16.00;99.90
7498;DHT22;3790;48.806;9.140;2023-08-08T05:57:41;15.90;99.90
7498;DHT22;3790;48.806;9.140;2023-08-08T06:02:42;15.90;99.90
7498;DHT22;3790;48.806;9.140;2023-08-08T06:07:42;15.80;99.90
7498;DHT22;3790;48.806;9.140;2023-08-08T06:12:43;15.80;99.90
7498;DHT22;3790;48.806;9.140;2023-08-08T06:17:44;15.90;99.90
7498;DHT22;3790;48.806;9.140;2023-08-08T06:22:44;15.90;99.90
7498;DHT22;3790;48.806;9.140;2023-08-08T06:27:45;16.30;99.90
7498;DHT22;3790;48.806;9.140;2023-08-08T06:32:45;16.20;99.90
7498;DHT22;3790;48.806;9.140;2023-08-08T06:37:46;16.40;99.90
7498;DHT22;3790;48.806;9.140;2023-08-08T06:42:46;16.40;99.90
7498;DHT22;3790;48.806;9.140;2023-08-08T06:47:47;16.50;99.90
7498;DHT22;3790;48.806;9.140;2023-08-08T06:52:47;16.50;99.90
7498;DHT22;3790;48.806;9.140;2023-08-08T06:57:48;16.60;99.90
7498;DHT22;3790;48.806;9.140;2023-08-08T07:02:48;16.70;99.90
7498;DHT22;3790;48.806;9.140;2023-08-08T07:07:50;16.70;99.90
7498;DHT22;3790;48.806;9.140;2023-08-08T07:12:51;16.80;99.90
7498;DHT22;3790;48.806;9.140;2023-08-08T07:17:51;16.90;99.90
7498;DHT22;3790;48.806;9.140;2023-08-08T07:22:52;17.00;99.90
7498;DHT22;3790;48.806;9.140;2023-08-08T07:27:56;17.00;99.90
7498;DHT22;3790;48.806;9.140;2023-08-08T07:32:56;17.10;99.90
7498;DHT22;3790;48.806;9.140;2023-08-08T07:37:57;17.30;99.90
7498;DHT22;3790;48.806;9.140;2023-08-08T07:42:57;17.40;99.90
7498;DHT22;3790;48.806;9.140;2023-08-08T07:47:58;17.40;99.90
7498;DHT22;3790;48.806;9.140;2023-08-08T07:52:58;17.70;99.90
7498;DHT22;3790;48.806;9.140;2023-08-08T07:57:59;17.90;99.90
7498;DHT22;3790;48.806;9.140;2023-08-08T08:02:59;17.80;99.90
7498;DHT22;3790;48.806;9.140;2023-08-08T08:08:00;18.10;99.90
7498;DHT22;3790;48.806;9.140;2023-08-08T08:13:01;18.00;99.90
7498;DHT22;3790;48.806;9.140;2023-08-08T08:18:01;17.80;99.90
7498;DHT22;3790;48.806;9.140;2023-08-08T08:23:02;17.90;99.90
7498;DHT22;3790;48.806;9.140;2023-08-08T08:28:02;18.00;99.90
7498;DHT22;3790;48.806;9.140;2023-08-08T08:33:03;18.10;99.90
7498;DHT22;3790;48.806;9.140;2023-08-08T08:38:07;18.10;99.90
7498;DHT22;3790;48.806;9.140;2023-08-08T08:43:09;18.20;99.90
7498;DHT22;3790;48.806;9.140;2023-08-08T08:48:10;18.70;99.90
7498;DHT22;3790;48.806;9.140;2023-08-08T08:53:11;18.60;99.90
7498;DHT22;3790;48.806;9.140;2023-08-08T08:58:16;18.50;99.90
7498;DHT22;3790;48.806;9.140;2023-08-08T09:03:19;18.60;99.90
7498;DHT22;3790;48.806;9.140;2023-08-08T09:08:20;19.00;99.90
7498;DHT22;3790;48.806;9.140;2023-08-08T09:13:20;19.20;99.90
7498;DHT22;3790;48.806;9.140;2023-08-08T09:18:23;19.20;99.90
7498;DHT22;3790;48.806;9.140;2023-08-08T09:23:25;19.80;99.90
7498;DHT22;3790;48.806;9.140;2023-08-08T09:28:25;20.00;99.90
7498;DHT22;3790;48.806;9.140;2023-08-08T09:33:29;20.10;99.90
7498;DHT22;3790;48.806;9.140;2023-08-08T09:38:29;19.70;99.90
7498;DHT22;3790;48.806;9.140;2023-08-08T09:43:30;19.80;99.90
7498;DHT22;3790;48.806;9.140;2023-08-08T09:48:33;19.70;99.90
7498;DHT22;3790;48.806;9.140;2023-08-08T09:53:34;19.70;99.90
7498;DHT22;3790;48.806;9.140;2023-08-08T09:58:35;19.40;99.90
7498;DHT22;3790;48.806;9.140;2023-08-08T10:03:36;19.40;99.90
7498;DHT22;3790;48.806;9.140;2023-08-08T10:08:38;19.80;99.90
7498;DHT22;3790;48.806;9.140;2023-08-08T10:13:46;19.80;99.90
7498;DHT22;3790;48.806;9.140;2023-08-08T10:18:58;19.70;99.90
7498;DHT22;3790;48.806;9.140;2023-08-08T10:24:03;19.90;99.90
7498;DHT22;3790;48.806;9.140;2023-08-08T10:29:04;20.00;99.90
7498;DHT22;3790;48.806;9.140;2023-08-08T10:34:06;20.20;99.90
7498;DHT22;3790;48.806;9.140;2023-08-08T10:39:15;20.30;99.90
7498;DHT22;3790;48.806;9.140;2023-08-08T10:44:25;20.20;99.90
7498;DHT22;3790;48.806;9.140;2023-08-08T10:49:26;20.10;99.90
7498;DHT22;3790;48.806;9.140;2023-08-08T10:54:27;20.30;99.90
7498;DHT22;3790;48.806;9.140;2023-08-08T10:59:38;20.10;99.90
7498;DHT22;3790;48.806;9.140;2023-08-08T11:04:40;20.10;99.90
7498;DHT22;3790;48.806;9.140;2023-08-08T11:09:42;20.10;99.90
7498;DHT22;3790;48.806;9.140;2023-08-08T11:14:43;20.60;99.90
7498;DHT22;3790;48.806;9.140;2023-08-08T11:19:43;21.00;99.90
7498;DHT22;3790;48.806;9.140;2023-08-08T11:24:44;21.20;99.90
7498;DHT22;3790;48.806;9.140;2023-08-08T11:29:51;21.20;99.90
7498;DHT22;3790;48.806;9.140;2023-08-08T11:34:52;21.00;99.90
7498;DHT22;3790;48.806;9.140;2023-08-08T11:39:52;20.90;99.70
7498;DHT22;3790;48.806;9.140;2023-08-08T11:44:53;21.30;99.90
7498;DHT22;3790;48.806;9.140;2023-08-08T11:49:54;21.90;99.90
7498;DHT22;3790;48.806;9.140;2023-08-08T11:54:54;22.00;99.90
7498;DHT22;3790;48.806;9.140;2023-08-08T11:59:56;21.40;99.90
7498;DHT22;3790;48.806;9.140;2023-08-08T12:05:04;21.50;99.90
7498;DHT22;3790;48.806;9.140;2023-08-08T12:10:05;21.30;99.90
7498;DHT22;3790;48.806;9.140;2023-08-08T12:15:07;21.30;99.90
7498;DHT22;3790;48.806;9.140;2023-08-08T12:20:09;21.10;99.90
7498;DHT22;3790;48.806;9.140;2023-08-08T12:25:10;21.20;99.90
7498;DHT22;3790;48.806;9.140;2023-08-08T12:30:11;22.00;98.80
7498;DHT22;3790;48.806;9.140;2023-08-08T12:35:11;21.80;99.90
7498;DHT22;3790;48.806;9.140;2023-08-08T12:40:12;21.70;99.90
7498;DHT22;3790;48.806;9.140;2023-08-08T12:45:13;21.70;99.90
7498;DHT22;3790;48.806;9.140;2023-08-08T12:50:14;22.20;99.90
7498;DHT22;3790;48.806;9.140;2023-08-08T12:55:15;22.10;99.70
7498;DHT22;3790;48.806;9.140;2023-08-08T13:00:17;22.50;99.90
7498;DHT22;3790;48.806;9.140;2023-08-08T13:05:18;22.70;99.90
7498;DHT22;3790;48.806;9.140;2023-08-08T13:10:19;22.60;99.90
7498;DHT22;3790;48.806;9.140;2023-08-08T13:15:20;22.40;99.90
7498;DHT22;3790;48.806;9.140;2023-08-08T13:20:21;22.10;99.90
7498;DHT22;3790;48.806;9.140;2023-08-08T13:25:22;21.90;99.90
7498;DHT22;3790;48.806;9.140;2023-08-08T13:30:23;21.80;99.90
7498;DHT22;3790;48.806;9.140;2023-08-08T13:35:23;21.80;99.90
7498;DHT22;3790;48.806;9.140;2023-08-08T13:40:24;22.30;99.90
7498;DHT22;3790;48.806;9.140;2023-08-08T13:45:24;22.70;99.90
7498;DHT22;3790;48.806;9.140;2023-08-08T13:50:25;22.60;99.90
7498;DHT22;3790;48.806;9.140;2023-08-08T13:55:25;22.40;99.90
7498;DHT22;3790;48.806;9.140;2023-08-08T14:00:27;22.80;99.90
7498;DHT22;3790;48.806;9.140;2023-08-08T14:05:27;22.10;99.90
7498;DHT22;3790;48.806;9.140;2023-08-08T14:10:29;21.80;99.90
7498;DHT22;3790;48.806;9.140;2023-08-08T14:15:29;21.40;99.90
7498;DHT22;3790;48.806;9.140;2023-08-08T14:20:30;21.00;99.90
7498;DHT22;3790;48.806;9.140;2023-08-08T14:25:31;21.40;99.90
7498;DHT22;3790;48.806;9.140;2023-08-08T14:30:32;21.40;99.90
7498;DHT22;3790;48.806;9.140;2023-08-08T14:35:32;21.50;99.90
7498;DHT22;3790;48.806;9.140;2023-08-08T14:40:33;21.40;99.90
7498;DHT22;3790;48.806;9.140;2023-08-08T14:45:35;21.40;99.90
7498;DHT22;3790;48.806;9.140;2023-08-08T14:50:37;21.30;99.90
7498;DHT22;3790;48.806;9.140;2023-08-08T14:55:38;20.80;99.90
7498;DHT22;3790;48.806;9.140;2023-08-08T15:00:39;20.80;99.90
7498;DHT22;3790;48.806;9.140;2023-08-08T15:05:39;20.80;99.90
7498;DHT22;3790;48.806;9.140;2023-08-08T15:10:40;20.50;99.90
7498;DHT22;3790;48.806;9.140;2023-08-08T15:15:41;20.20;99.90
7498;DHT22;3790;48.806;9.140;2023-08-08T15:20:41;20.20;99.90
7498;DHT22;3790;48.806;9.140;2023-08-08T15:25:42;20.50;99.90
7498;DHT22;3790;48.806;9.140;2023-08-08T15:30:43;21.50;99.90
7498;DHT22;3790;48.806;9.140;2023-08-08T15:35:43;21.40;99.90
7498;DHT22;3790;48.806;9.140;2023-08-08T15:40:44;21.10;99.90
7498;DHT22;3790;48.806;9.140;2023-08-08T15:45:45;20.90;99.90
7498;DHT22;3790;48.806;9.140;2023-08-08T15:50:45;20.40;99.90
7498;DHT22;3790;48.806;9.140;2023-08-08T15:55:46;20.30;99.90
7498;DHT22;3790;48.806;9.140;2023-08-08T16:00:46;20.00;99.90
7498;DHT22;3790;48.806;9.140;2023-08-08T16:05:47;20.30;99.90
7498;DHT22;3790;48.806;9.140;2023-08-08T16:10:48;20.60;99.90
7498;DHT22;3790;48.806;9.140;2023-08-08T16:15:50;21.10;99.90
7498;DHT22;3790;48.806;9.140;2023-08-08T16:20:50;21.20;99.90
7498;DHT22;3790;48.806;9.140;2023-08-08T16:25:51;21.90;99.90
7498;DHT22;3790;48.806;9.140;2023-08-08T16:30:59;21.70;99.90
7498;DHT22;3790;48.806;9.140;2023-08-08T16:36:03;21.20;99.90
7498;DHT22;3790;48.806;9.140;2023-08-08T16:41:03;21.10;99.90
7498;DHT22;3790;48.806;9.140;2023-08-08T16:46:05;21.00;99.90
7498;DHT22;3790;48.806;9.140;2023-08-08T16:51:08;21.10;99.90
7498;DHT22;3790;48.806;9.140;2023-08-08T16:56:09;21.10;99.90
7498;DHT22;3790;48.806;9.140;2023-08-08T17:01:10;21.00;99.90
7498;DHT22;3790;48.806;9.140;2023-08-08T17:06:12;21.10;99.90
7498;DHT22;3790;48.806;9.140;2023-08-08T17:11:16;20.90;99.90
7498;DHT22;3790;48.806;9.140;2023-08-08T17:16:17;20.80;99.90
7498;DHT22;3790;48.806;9.140;2023-08-08T17:21:19;20.90;99.90
7498;DHT22;3790;48.806;9.140;2023-08-08T17:26:19;20.60;99.90
7498;DHT22;3790;48.806;9.140;2023-08-08T17:31:20;20.50;99.90
7498;DHT22;3790;48.806;9.140;2023-08-08T17:36:20;20.40;99.90
7498;DHT22;3790;48.806;9.140;2023-08-08T17:41:21;20.20;99.90
7498;DHT22;3790;48.806;9.140;2023-08-08T17:46:21;20.10;99.90
7498;DHT22;3790;48.806;9.140;2023-08-08T17:51:22;20.00;99.90
7498;DHT22;3790;48.806;9.140;2023-08-08T17:56:22;20.00;99.90
7498;DHT22;3790;48.806;9.140;2023-08-08T18:01:23;19.90;99.90
7498;DHT22;3790;48.806;9.140;2023-08-08T18:06:24;19.80;99.90
7498;DHT22;3790;48.806;9.140;2023-08-08T18:11:24;19.90;99.90
7498;DHT22;3790;48.806;9.140;2023-08-08T18:16:25;19.90;99.90
7498;DHT22;3790;48.806;9.140;2023-08-08T18:21:25;19.90;99.90
7498;DHT22;3790;48.806;9.140;2023-08-08T18:26:26;19.70;99.90
7498;DHT22;3790;48.806;9.140;2023-08-08T18:31:27;19.70;99.90
7498;DHT22;3790;48.806;9.140;2023-08-08T18:36:28;19.60;99.90
7498;DHT22;3790;48.806;9.140;2023-08-08T18:41:28;19.60;99.90
7498;DHT22;3790;48.806;9.140;2023-08-08T18:46:29;19.70;99.90
7498;DHT22;3790;48.806;9.140;2023-08-08T18:51:30;19.50;99.90
7498;DHT22;3790;48.806;9.140;2023-08-08T18:56:30;19.20;99.90
7498;DHT22;3790;48.806;9.140;2023-08-08T19:01:32;19.20;99.90
7498;DHT22;3790;48.806;9.140;2023-08-08T19:06:33;19.00;99.90
7498;DHT22;3790;48.806;9.140;2023-08-08T19:11:35;18.90;99.90
7498;DHT22;3790;48.806;9.140;2023-08-08T19:16:35;18.90;99.90
7498;DHT22;3790;48.806;9.140;2023-08-08T19:21:36;18.90;99.90
7498;DHT22;3790;48.806;9.140;2023-08-08T19:26:37;18.70;99.90
7498;DHT22;3790;48.806;9.140;2023-08-08T19:31:37;18.60;99.90
7498;DHT22;3790;48.806;9.140;2023-08-08T19:36:38;18.60;99.90
7498;DHT22;3790;48.806;9.140;2023-08-08T19:41:38;18.60;99.90
7498;DHT22;3790;48.806;9.140;2023-08-08T19:46:39;18.60;99.90
7498;DHT22;3790;48.806;9.140;2023-08-08T19:51:40;18.60;99.90
7498;DHT22;3790;48.806;9.140;2023-08-08T19:56:40;18.50;99.90
7498;DHT22;3790;48.806;9.140;2023-08-08T20:01:41;18.50;99.90
7498;DHT22;3790;48.806;9.140;2023-08-08T20:06:41;18.60;99.90
7498;DHT22;3790;48.806;9.140;2023-08-08T20:11:42;18.60;99.90
7498;DHT22;3790;48.806;9.140;2023-08-08T20:16:42;18.50;99.90
7498;DHT22;3790;48.806;9.140;2023-08-08T20:21:43;18.50;99.90
7498;DHT22;3790;48.806;9.140;2023-08-08T20:26:43;18.60;99.90
7498;DHT22;3790;48.806;9.140;2023-08-08T20:31:44;18.60;99.90
7498;DHT22;3790;48.806;9.140;2023-08-08T20:36:44;18.50;99.90
7498;DHT22;3790;48.806;9.140;2023-08-08T20:41:45;18.40;99.90
7498;DHT22;3790;48.806;9.140;2023-08-08T20:46:45;18.30;99.90
7498;DHT22;3790;48.806;9.140;2023-08-08T20:51:46;18.20;99.90
7498;DHT22;3790;48.806;9.140;2023-08-08T20:56:54;18.20;99.90
7498;DHT22;3790;48.806;9.140;2023-08-08T21:01:55;18.10;99.90
7498;DHT22;3790;48.806;9.140;2023-08-08T21:06:56;18.10;99.90
7498;DHT22;3790;48.806;9.140;2023-08-08T21:11:56;17.90;99.90
7498;DHT22;3790;48.806;9.140;2023-08-08T21:16:57;17.90;99.90
7498;DHT22;3790;48.806;9.140;2023-08-08T21:21:57;17.70;99.90
7498;DHT22;3790;48.806;9.140;2023-08-08T21:26:58;17.60;99.90
7498;DHT22;3790;48.806;9.140;2023-08-08T21:31:58;17.40;99.90
7498;DHT22;3790;48.806;9.140;2023-08-08T21:36:59;17.40;99.90
7498;DHT22;3790;48.806;9.140;2023-08-08T21:41:59;17.20;99.90
7498;DHT22;3790;48.806;9.140;2023-08-08T21:47:00;17.20;99.90
7498;DHT22;3790;48.806;9.140;2023-08-08T21:52:00;17.20;99.90
7498;DHT22;3790;48.806;9.140;2023-08-08T21:57:01;17.30;99.90
7498;DHT22;3790;48.806;9.140;2023-08-08T22:02:01;17.30;99.90
7498;DHT22;3790;48.806;9.140;2023-08-08T22:07:02;17.40;99.90
7498;DHT22;3790;48.806;9.140;2023-08-08T22:12:03;17.50;99.90
7498;DHT22;3790;48.806;9.140;2023-08-08T22:17:04;17.50;99.90
7498;DHT22;3790;48.806;9.140;2023-08-08T22:22:04;17.60;99.90
7498;DHT22;3790;48.806;9.140;2023-08-08T22:27:05;17.60;99.90
7498;DHT22;3790;48.806;9.140;2023-08-08T22:32:05;17.50;99.90
7498;DHT22;3790;48.806;9.140;2023-08-08T22:37:06;17.50;99.90
7498;DHT22;3790;48.806;9.140;2023-08-08T22:42:09;17.50;99.90
7498;DHT22;3790;48.806;9.140;2023-08-08T22:47:09;17.50;99.90
7498;DHT22;3790;48.806;9.140;2023-08-08T22:52:10;17.50;99.90
7498;DHT22;3790;48.806;9.140;2023-08-08T22:57:10;17.40;99.90
7498;DHT22;3790;48.806;9.140;2023-08-08T23:02:11;17.40;99.90
7498;DHT22;3790;48.806;9.140;2023-08-08T23:07:12;17.40;99.90
7498;DHT22;3790;48.806;9.140;2023-08-08T23:12:12;17.50;99.90
7498;DHT22;3790;48.806;9.140;2023-08-08T23:17:13;17.60;99.90
7498;DHT22;3790;48.806;9.140;2023-08-08T23:22:13;17.70;99.90
7498;DHT22;3790;48.806;9.140;2023-08-08T23:27:14;17.60;99.90
7498;DHT22;3790;48.806;9.140;2023-08-08T23:32:15;17.60;99.90
7498;DHT22;3790;48.806;9.140;2023-08-08T23:37:16;17.50;99.90
7498;DHT22;3790;48.806;9.140;2023-08-08T23:42:17;17.50;99.90
7498;DHT22;3790;48.806;9.140;2023-08-08T23:47:21;17.50;99.90
7498;DHT22;3790;48.806;9.140;2023-08-08T23:52:22;17.50;99.90
7498;DHT22;3790;48.806;9.140;2023-08-08T23:57:22;17.50;99.90
